Jiu Hua San — 9VBK2 — position and weather

sailwx.info

Track history (hours):
 
Tides and Currents Weather Stations Pressure Air Temp Water Temp Dewpoint Dewpoint Depression Visibility Wind Speed Wind Dir Waves Ship Positions

Jiu Hua San

Last reported at 2016-May-26 20:15 UTC. Time now 2016-May-29 23:07 UTC.
Position N 02°12' E 101°58'.

Length 333 m; draft 11.5 m.

Type: Ship. MMSI: 565914000.

Date/timePositionNaut miles runAvg speedWind from/ knotsBaromVisibWave heightAir tempDewpointWater temp
2016-May-26 20:15N 02°12' E 101°58'1116.0
2016-May-26 19:33N 02°04' E 102°07'1515.4
2016-May-26 18:33N 01°55' E 102°19'1414.5
2016-May-26 17:33N 01°49' E 102°32'1413.7
2016-May-26 16:31N 01°42' E 102°44'4613.6
2016-May-26 13:10N 01°17' E 103°22'914.6
2016-May-26 12:33N 01°13' E 103°30'6 5.6
2016-May-26 11:33N 01°14' E 103°36'1 0.5
2016-May-26 09:23N 01°15' E 103°35'0 0.3
2016-May-26 08:32N 01°15' E 103°35'0 0.1
2016-May-26 07:23N 01°15' E 103°35'0 0.1
2016-May-26 06:23N 01°15' E 103°35'0 0.3
2016-May-26 05:31N 01°15' E 103°35'0 0.1
2016-May-26 01:20N 01°15' E 103°35'0 0.2
2016-May-26 00:17N 01°15' E 103°35'0 0.5
2016-May-25 23:34N 01°15' E 103°35'3 3.4
2016-May-25 22:33N 01°12' E 103°37'7 7.4
2016-May-25 21:33N 01°08' E 103°44'10 9.6
2016-May-25 20:33N 01°13' E 103°52'1010.0
2016-May-25 19:33N 01°16' E 104°02'11 9.2
2016-May-25 18:24N 01°17' E 104°12'  
Track history (hours):
 
Tides and Currents Weather Stations Pressure Air Temp Water Temp Dewpoint Dewpoint Depression Visibility Wind Speed Wind Dir Waves Ship Positions

Jiu Hua San

Last reported at 2016-May-26 20:15 UTC. Time now 2016-May-29 23:07 UTC.
Position N 02°12' E 101°58'.

Length 333 m; draft 11.5 m.

Type: Ship. MMSI: 565914000.

Date/timePositionNaut miles runAvg speedWind from/ knotsBaromVisibWave heightAir tempDewpointWater temp
2016-May-26 20:15N 02°12' E 101°58'1116.0
2016-May-26 19:33N 02°04' E 102°07'1515.4
2016-May-26 18:33N 01°55' E 102°19'1414.5
2016-May-26 17:33N 01°49' E 102°32'1413.7
2016-May-26 16:31N 01°42' E 102°44'4613.6
2016-May-26 13:10N 01°17' E 103°22'914.6
2016-May-26 12:33N 01°13' E 103°30'6 5.6
2016-May-26 11:33N 01°14' E 103°36'1 0.5
2016-May-26 09:23N 01°15' E 103°35'0 0.3
2016-May-26 08:32N 01°15' E 103°35'0 0.1
2016-May-26 07:23N 01°15' E 103°35'0 0.1
2016-May-26 06:23N 01°15' E 103°35'0 0.3
2016-May-26 05:31N 01°15' E 103°35'0 0.1
2016-May-26 01:20N 01°15' E 103°35'0 0.2
2016-May-26 00:17N 01°15' E 103°35'0 0.5
2016-May-25 23:34N 01°15' E 103°35'3 3.4
2016-May-25 22:33N 01°12' E 103°37'7 7.4
2016-May-25 21:33N 01°08' E 103°44'10 9.6
2016-May-25 20:33N 01°13' E 103°52'1010.0
2016-May-25 19:33N 01°16' E 104°02'11 9.2
2016-May-25 18:24N 01°17' E 104°12'  

Dump ship's entire track history